Time;durP1;ratioP1;P1;durP2;ratioP2;P2;SDS_P1;SDS_P2;PMS_P1;PMS_P2;Temp;Humidity;BMP_temperature;BMP_pressure;BME280_temperature;BME280_humidity;BME280_pressure;Samples;Min_cycle;Max_cycle;Signal;HPM_P1;HPM_P2
2021/10/24 00:00:52;;;;;;;14.82;9.30;;;3.30;99.90;;;;;;5047037;28;20135;-85
2021/10/24 00:03:18;;;;;;;19.50;10.57;;;3.40;99.90;;;;;;5047326;28;20029;-85
2021/10/24 00:05:44;;;;;;;15.77;9.25;;;3.40;99.90;;;;;;5046049;28;20132;-84
2021/10/24 00:08:10;;;;;;;12.85;9.25;;;3.40;99.90;;;;;;5047522;28;20052;-84
2021/10/24 00:10:35;;;;;;;19.10;9.23;;;3.40;99.90;;;;;;5049425;28;20039;-84
2021/10/24 00:13:01;;;;;;;17.55;9.63;;;3.50;99.90;;;;;;5048126;28;20025;-83
2021/10/24 00:15:27;;;;;;;13.05;9.00;;;3.50;99.90;;;;;;5047333;28;20079;-83
2021/10/24 00:17:52;;;;;;;13.73;9.00;;;3.50;99.90;;;;;;5044930;28;20461;-84
2021/10/24 00:20:18;;;;;;;13.25;9.20;;;3.50;99.90;;;;;;5045663;28;20076;-85
2021/10/24 00:22:44;;;;;;;16.13;9.40;;;3.60;99.90;;;;;;5048102;28;20112;-84
2021/10/24 00:25:10;;;;;;;14.85;9.05;;;3.60;99.90;;;;;;5047617;28;21216;-87
2021/10/24 00:27:36;;;;;;;13.82;9.45;;;3.50;99.90;;;;;;5047614;28;20032;-85
2021/10/24 00:30:02;;;;;;;14.00;8.82;;;3.60;99.90;;;;;;5045436;28;20488;-84
2021/10/24 00:32:28;;;;;;;17.98;9.30;;;3.60;99.90;;;;;;5047690;28;20099;-83
2021/10/24 00:34:54;;;;;;;13.00;9.38;;;3.60;99.90;;;;;;5046995;28;20025;-83
2021/10/24 00:37:19;;;;;;;16.40;10.15;;;3.70;99.90;;;;;;5048709;28;20084;-84
2021/10/24 00:39:45;;;;;;;15.52;9.23;;;3.70;99.90;;;;;;5046306;28;20645;-85
2021/10/24 00:42:11;;;;;;;16.67;9.80;;;3.70;99.90;;;;;;5046189;28;20013;-86
2021/10/24 00:44:37;;;;;;;18.27;9.95;;;3.70;99.90;;;;;;5045892;28;20041;-85
2021/10/24 00:47:05;;;;;;;21.13;10.90;;;3.80;99.90;;;;;;5044916;28;20045;-88
2021/10/24 00:49:31;;;;;;;17.00;10.27;;;3.90;99.90;;;;;;5048771;28;20051;-84
2021/10/24 00:51:57;;;;;;;25.45;11.85;;;3.90;99.90;;;;;;5049135;28;20028;-85
2021/10/24 00:54:25;;;;;;;18.35;10.02;;;4.00;99.90;;;;;;5046493;28;20029;-85
2021/10/24 00:56:55;;;;;;;17.92;10.88;;;3.90;99.90;;;;;;5044409;28;20052;-86
2021/10/24 00:59:25;;;;;;;18.75;10.43;;;4.10;99.90;;;;;;5047189;28;20032;-85
2021/10/24 01:01:51;;;;;;;20.70;11.50;;;4.10;99.90;;;;;;5052242;28;20083;-84
2021/10/24 01:04:18;;;;;;;15.98;9.82;;;4.20;99.90;;;;;;5068079;28;20060;-85
2021/10/24 01:06:45;;;;;;;28.98;13.60;;;4.20;99.90;;;;;;5055273;28;20029;-85
2021/10/24 01:09:14;;;;;;;23.45;11.70;;;4.30;99.90;;;;;;5049197;28;20040;-84
2021/10/24 01:11:41;;;;;;;20.13;12.43;;;4.30;99.90;;;;;;5045762;28;20451;-85
2021/10/24 01:14:08;;;;;;;22.60;12.55;;;4.30;99.90;;;;;;5042503;28;20071;-86
2021/10/24 01:16:35;;;;;;;21.52;12.00;;;4.30;99.90;;;;;;5047391;28;20099;-87
2021/10/24 01:19:02;;;;;;;25.45;12.50;;;4.40;99.90;;;;;;5049139;28;20053;-84
2021/10/24 01:21:28;;;;;;;27.77;14.35;;;4.40;99.90;;;;;;5048681;28;20462;-85
2021/10/24 01:23:53;;;;;;;28.08;14.52;;;4.50;99.90;;;;;;5046324;28;20041;-84
2021/10/24 01:26:19;;;;;;;24.88;13.52;;;4.50;99.90;;;;;;5045041;28;20102;-86
2021/10/24 01:28:45;;;;;;;23.05;13.20;;;4.40;99.90;;;;;;5045172;28;20068;-84
2021/10/24 01:31:11;;;;;;;22.88;13.20;;;4.40;99.90;;;;;;5044462;28;20504;-86
2021/10/24 01:33:37;;;;;;;20.38;13.40;;;4.40;99.90;;;;;;5037838;28;20035;-84
2021/10/24 01:36:05;;;;;;;23.50;13.38;;;4.40;99.90;;;;;;5046422;28;20097;-84
2021/10/24 01:38:32;;;;;;;28.20;13.48;;;4.30;99.90;;;;;;5048360;28;20036;-83
2021/10/24 01:40:59;;;;;;;21.48;12.80;;;4.40;99.90;;;;;;5051416;28;20119;-85
2021/10/24 01:43:26;;;;;;;21.27;11.80;;;4.40;99.90;;;;;;5052519;28;20029;-87
2021/10/24 01:45:52;;;;;;;27.13;14.70;;;4.40;99.90;;;;;;5047555;28;20037;-85
2021/10/24 01:48:18;;;;;;;20.08;13.23;;;4.40;99.90;;;;;;5051646;28;20627;-85
2021/10/24 01:50:44;;;;;;;23.88;13.80;;;4.40;99.90;;;;;;5046819;28;20159;-84
2021/10/24 01:53:11;;;;;;;20.23;11.95;;;4.40;99.90;;;;;;5051122;28;20021;-86
2021/10/24 01:55:37;;;;;;;17.98;12.35;;;4.40;99.90;;;;;;5049736;28;20029;-84
2021/10/24 01:58:03;;;;;;;21.30;13.40;;;4.40;99.90;;;;;;5052194;28;20056;-83
2021/10/24 02:00:29;;;;;;;26.00;14.13;;;4.40;99.90;;;;;;5049877;28;20017;-84
2021/10/24 02:02:55;;;;;;;25.10;13.32;;;4.50;99.90;;;;;;5050805;28;20124;-83
2021/10/24 02:05:21;;;;;;;30.92;13.93;;;4.50;99.90;;;;;;5048654;28;20036;-84
2021/10/24 02:07:46;;;;;;;22.70;14.30;;;4.50;99.90;;;;;;5048812;28;20400;-86
2021/10/24 02:10:16;;;;;;;23.73;14.23;;;4.60;99.90;;;;;;5049928;28;20029;-83
2021/10/24 02:12:42;;;;;;;29.55;14.93;;;4.60;99.90;;;;;;5049100;28;20495;-84
2021/10/24 02:15:09;;;;;;;28.23;15.77;;;4.60;99.90;;;;;;5050208;28;20033;-84
2021/10/24 02:17:35;;;;;;;31.10;15.98;;;4.70;99.90;;;;;;5050569;28;20032;-84
2021/10/24 02:20:03;;;;;;;24.15;14.45;;;4.60;99.90;;;;;;5050795;28;20021;-85
2021/10/24 02:22:28;;;;;;;34.80;13.93;;;4.70;99.90;;;;;;5050646;28;20021;-85
2021/10/24 02:24:54;;;;;;;22.77;13.48;;;4.70;99.90;;;;;;5049269;28;20058;-85
2021/10/24 02:27:20;;;;;;;29.42;14.30;;;4.70;99.90;;;;;;5051777;28;20036;-85
2021/10/24 02:29:46;;;;;;;27.10;14.60;;;4.60;99.90;;;;;;5051120;28;20155;-84
2021/10/24 02:32:13;;;;;;;26.13;13.45;;;4.70;99.90;;;;;;5045930;28;20167;-85
2021/10/24 02:34:40;;;;;;;21.98;13.65;;;4.50;99.90;;;;;;5051430;28;20086;-83
2021/10/24 02:37:06;;;;;;;24.70;14.00;;;4.40;99.90;;;;;;5048928;28;20445;-86
2021/10/24 02:39:32;;;;;;;21.88;12.63;;;4.40;99.90;;;;;;5048985;28;20491;-86
2021/10/24 02:41:58;;;;;;;28.73;13.75;;;4.30;99.90;;;;;;5047137;28;20021;-84
2021/10/24 02:44:24;;;;;;;24.75;14.32;;;4.30;99.90;;;;;;5046345;28;20506;-84
2021/10/24 02:46:51;;;;;;;21.70;13.35;;;4.20;99.90;;;;;;5050770;28;20023;-86
2021/10/24 02:49:17;;;;;;;22.23;13.00;;;4.20;99.90;;;;;;5050583;28;20078;-87
2021/10/24 02:51:43;;;;;;;20.63;12.93;;;4.20;99.90;;;;;;5048651;28;20041;-83
2021/10/24 02:54:10;;;;;;;19.70;13.05;;;4.10;99.90;;;;;;5050969;28;20036;-85
2021/10/24 02:56:36;;;;;;;19.08;12.30;;;4.10;99.90;;;;;;5050056;28;20029;-86
2021/10/24 02:59:01;;;;;;;23.95;13.55;;;4.10;99.90;;;;;;5050565;28;20017;-86
2021/10/24 03:01:27;;;;;;;20.48;13.07;;;4.20;99.90;;;;;;5045232;28;20476;-85
2021/10/24 03:03:53;;;;;;;21.17;13.63;;;4.20;99.90;;;;;;5045147;28;20109;-84
2021/10/24 03:06:18;;;;;;;22.52;12.52;;;4.10;99.90;;;;;;5046665;28;20124;-87
2021/10/24 03:08:44;;;;;;;22.15;12.88;;;4.10;99.90;;;;;;5046603;28;20033;-86
2021/10/24 03:11:10;;;;;;;20.35;12.98;;;4.00;99.90;;;;;;5048160;28;20429;-84
2021/10/24 03:13:35;;;;;;;24.42;13.02;;;4.10;99.90;;;;;;5048844;28;20369;-85
2021/10/24 03:16:01;;;;;;;24.77;13.40;;;4.10;99.90;;;;;;5050260;28;20472;-87
2021/10/24 03:18:27;;;;;;;20.27;13.63;;;4.00;99.90;;;;;;5046037;28;20059;-86
2021/10/24 03:20:53;;;;;;;21.05;13.38;;;4.10;99.90;;;;;;5045996;28;20029;-87
2021/10/24 03:23:18;;;;;;;19.88;12.50;;;4.10;99.90;;;;;;5050018;28;20025;-84
2021/10/24 03:25:44;;;;;;;21.40;12.82;;;4.10;99.90;;;;;;5050953;28;20067;-84
2021/10/24 03:28:10;;;;;;;21.33;13.27;;;4.20;99.90;;;;;;5048146;28;20460;-86
2021/10/24 03:30:36;;;;;;;19.13;12.02;;;4.20;99.90;;;;;;5047349;28;20060;-86
2021/10/24 03:33:01;;;;;;;19.15;12.13;;;4.30;99.90;;;;;;5046594;28;20036;-86
2021/10/24 03:35:27;;;;;;;28.83;14.98;;;4.30;99.90;;;;;;5049484;28;20474;-84
2021/10/24 03:37:53;;;;;;;29.27;17.73;;;4.40;99.90;;;;;;5048734;28;20072;-85
2021/10/24 03:40:19;;;;;;;32.70;17.35;;;4.40;99.90;;;;;;5050237;28;20388;-84
2021/10/24 03:42:44;;;;;;;29.50;18.67;;;4.40;99.90;;;;;;5045256;28;20033;-83
2021/10/24 03:45:11;;;;;;;29.92;19.17;;;4.40;99.90;;;;;;5048705;28;20056;-85
2021/10/24 03:47:37;;;;;;;29.25;18.02;;;4.40;99.90;;;;;;5049275;28;20554;-85
2021/10/24 03:50:04;;;;;;;29.90;18.60;;;4.40;99.90;;;;;;5047034;28;20113;-85
2021/10/24 03:52:30;;;;;;;29.20;19.13;;;4.40;99.90;;;;;;5049009;28;20028;-84
2021/10/24 03:54:56;;;;;;;32.95;19.50;;;4.40;99.90;;;;;;5044405;28;20486;-86
2021/10/24 03:57:22;;;;;;;34.80;19.90;;;4.40;99.90;;;;;;5044936;28;20044;-85
2021/10/24 03:59:47;;;;;;;34.10;20.60;;;4.40;99.90;;;;;;5046795;28;20021;-85
2021/10/24 04:02:13;;;;;;;35.53;20.05;;;4.40;99.90;;;;;;5047089;28;20370;-84
2021/10/24 04:04:39;;;;;;;36.30;19.88;;;4.40;99.90;;;;;;5049528;28;20119;-84
2021/10/24 04:07:05;;;;;;;40.70;21.35;;;4.40;99.90;;;;;;5049063;28;20100;-84
2021/10/24 04:09:31;;;;;;;37.08;20.48;;;4.30;99.90;;;;;;5052871;28;20036;-85
2021/10/24 04:11:57;;;;;;;38.05;21.85;;;4.40;99.90;;;;;;5069511;28;20033;-84
2021/10/24 04:14:25;;;;;;;42.50;22.63;;;4.40;99.90;;;;;;5061662;28;20116;-84
2021/10/24 04:16:51;;;;;;;37.95;20.83;;;4.40;99.90;;;;;;5049786;28;20056;-86
2021/10/24 04:19:17;;;;;;;39.80;22.55;;;4.40;99.90;;;;;;5050900;28;20027;-86
2021/10/24 04:21:43;;;;;;;43.05;22.13;;;4.50;99.90;;;;;;5047512;28;20119;-85
2021/10/24 04:24:09;;;;;;;36.38;21.17;;;4.40;99.90;;;;;;5048334;28;20112;-86
2021/10/24 04:26:34;;;;;;;42.92;21.50;;;4.40;99.90;;;;;;5045709;28;20456;-85
2021/10/24 04:29:00;;;;;;;42.72;23.52;;;4.40;99.90;;;;;;5046574;28;20139;-85
2021/10/24 04:31:26;;;;;;;44.33;24.42;;;4.50;99.90;;;;;;5048732;28;20021;-85
2021/10/24 04:33:52;;;;;;;46.78;24.40;;;4.50;99.90;;;;;;5047021;28;20021;-86
2021/10/24 04:36:17;;;;;;;42.13;23.75;;;4.50;99.90;;;;;;5047066;28;20554;-85
2021/10/24 04:38:43;;;;;;;45.42;25.10;;;4.50;99.90;;;;;;5047702;28;20025;-86
2021/10/24 04:41:09;;;;;;;48.78;25.35;;;4.50;99.90;;;;;;5047557;28;20025;-85
2021/10/24 04:43:34;;;;;;;54.47;26.02;;;4.60;99.90;;;;;;5049439;28;20052;-85
2021/10/24 04:46:00;;;;;;;50.55;25.65;;;4.60;99.90;;;;;;5046714;28;20378;-85
2021/10/24 04:48:25;;;;;;;48.20;24.90;;;4.60;99.90;;;;;;5043460;28;20076;-85
2021/10/24 04:50:51;;;;;;;48.00;25.45;;;4.60;99.90;;;;;;5043858;28;20104;-86
2021/10/24 04:53:17;;;;;;;44.67;25.10;;;4.60;99.90;;;;;;5048601;28;20108;-85
2021/10/24 04:55:45;;;;;;;46.92;26.15;;;4.70;99.90;;;;;;5039875;28;20084;-84
2021/10/24 04:58:11;;;;;;;52.35;26.42;;;4.60;99.90;;;;;;5047938;28;20045;-86
2021/10/24 05:00:37;;;;;;;50.60;26.13;;;4.60;99.90;;;;;;5046808;28;20056;-85
2021/10/24 05:03:03;;;;;;;72.63;27.25;;;4.60;99.90;;;;;;5046662;28;20021;-85
2021/10/24 05:05:29;;;;;;;55.90;27.35;;;4.70;99.90;;;;;;5046622;28;20106;-86
2021/10/24 05:07:55;;;;;;;74.40;29.38;;;4.60;99.90;;;;;;5046431;28;20025;-84
2021/10/24 05:10:21;;;;;;;100.00;30.85;;;4.70;99.90;;;;;;5050097;28;20040;-84
2021/10/24 05:12:47;;;;;;;55.10;27.80;;;4.60;99.90;;;;;;5047537;28;20047;-87
2021/10/24 05:15:13;;;;;;;57.83;28.30;;;4.70;99.90;;;;;;5050643;28;20491;-83
2021/10/24 05:17:38;;;;;;;55.05;28.88;;;4.70;99.90;;;;;;5050631;28;20029;-85
2021/10/24 05:20:05;;;;;;;45.67;26.67;;;4.70;99.90;;;;;;5051240;28;20029;-84
2021/10/24 05:22:32;;;;;;;46.80;29.17;;;4.70;99.90;;;;;;5053858;28;20021;-87
2021/10/24 05:24:58;;;;;;;47.63;27.83;;;4.70;99.90;;;;;;5053751;28;20101;-84
2021/10/24 05:27:23;;;;;;;48.40;27.30;;;4.80;99.90;;;;;;5051310;28;20028;-86
2021/10/24 05:29:49;;;;;;;54.17;27.98;;;4.80;99.90;;;;;;5052159;28;20115;-86
2021/10/24 05:32:15;;;;;;;53.05;28.88;;;4.80;99.90;;;;;;5051432;28;20107;-87
2021/10/24 05:34:42;;;;;;;65.13;31.13;;;4.80;99.90;;;;;;5049916;28;20029;-87
2021/10/24 05:37:08;;;;;;;55.35;29.60;;;4.80;99.90;;;;;;5050834;28;20086;-87
2021/10/24 05:39:34;;;;;;;53.30;29.05;;;4.70;99.90;;;;;;5050334;28;20079;-86
2021/10/24 05:42:00;;;;;;;55.28;27.92;;;4.70;99.90;;;;;;5050013;28;20033;-85
2021/10/24 05:44:26;;;;;;;68.10;29.67;;;4.70;99.90;;;;;;5051310;28;20025;-86
2021/10/24 05:46:53;;;;;;;63.08;31.27;;;4.70;99.90;;;;;;5049659;28;20040;-86
2021/10/24 05:49:19;;;;;;;68.88;30.65;;;4.80;99.90;;;;;;5051043;28;20013;-84
2021/10/24 05:51:45;;;;;;;53.38;29.35;;;4.80;99.90;;;;;;5048558;28;20036;-84
2021/10/24 05:54:10;;;;;;;54.40;30.17;;;4.70;99.90;;;;;;5051606;28;20066;-86
2021/10/24 05:56:36;;;;;;;54.03;27.48;;;4.80;99.90;;;;;;5048853;28;20106;-84
2021/10/24 05:59:02;;;;;;;49.35;28.08;;;4.80;99.90;;;;;;5050283;28;20017;-85
2021/10/24 06:01:27;;;;;;;49.75;27.70;;;4.90;99.90;;;;;;5051563;28;20051;-84
2021/10/24 06:03:54;;;;;;;53.28;28.25;;;4.90;99.90;;;;;;5048268;28;20677;-83
2021/10/24 06:06:20;;;;;;;58.47;28.33;;;4.90;99.90;;;;;;5049698;28;20033;-85
2021/10/24 06:08:45;;;;;;;49.90;27.92;;;4.90;99.90;;;;;;5049900;28;20024;-86
2021/10/24 06:11:19;;;;;;;52.45;28.02;;;4.90;99.90;;;;;;5051203;28;20037;-84
2021/10/24 06:13:47;;;;;;;46.33;26.60;;;5.00;99.90;;;;;;5051422;28;20025;-85
2021/10/24 06:16:13;;;;;;;47.45;29.23;;;5.10;99.90;;;;;;5050400;28;20032;-86
2021/10/24 06:18:40;;;;;;;50.15;27.75;;;5.00;99.90;;;;;;5044156;28;20025;-85
2021/10/24 06:21:06;;;;;;;46.15;27.42;;;5.10;99.90;;;;;;5042623;28;20040;-84
2021/10/24 06:23:32;;;;;;;48.78;27.58;;;5.10;99.90;;;;;;5051374;28;20031;-87
2021/10/24 06:25:58;;;;;;;44.85;26.60;;;5.20;99.90;;;;;;5048148;28;20026;-85
2021/10/24 06:28:24;;;;;;;54.75;27.05;;;5.20;99.90;;;;;;5050361;28;20025;-86
2021/10/24 06:30:50;;;;;;;44.15;27.80;;;5.20;99.90;;;;;;5042551;28;20484;-85
2021/10/24 06:33:16;;;;;;;49.50;27.95;;;5.30;99.90;;;;;;5044108;28;20028;-83
2021/10/24 06:35:42;;;;;;;44.08;27.35;;;5.30;99.90;;;;;;5051593;28;20043;-85
2021/10/24 06:38:07;;;;;;;53.08;27.42;;;5.30;99.90;;;;;;5042059;28;20524;-86
2021/10/24 06:40:33;;;;;;;49.15;27.80;;;5.40;99.90;;;;;;5050522;28;20060;-84
2021/10/24 06:42:59;;;;;;;44.20;27.48;;;5.40;99.90;;;;;;5048004;28;20029;-86
2021/10/24 06:45:25;;;;;;;45.53;28.48;;;5.40;99.90;;;;;;5047843;28;20029;-86
2021/10/24 06:47:51;;;;;;;45.33;26.85;;;5.40;99.90;;;;;;5051034;28;20492;-86
2021/10/24 06:50:17;;;;;;;49.95;28.38;;;5.50;99.90;;;;;;5049207;28;20052;-86
2021/10/24 06:52:45;;;;;;;49.42;28.58;;;5.50;99.90;;;;;;5049611;28;20113;-84
2021/10/24 06:55:10;;;;;;;51.28;29.60;;;5.50;99.90;;;;;;5051604;28;20610;-86
2021/10/24 06:57:53;;;;;;;46.75;28.73;;;5.60;99.90;;;;;;5047837;28;20116;-86
2021/10/24 07:00:24;;;;;;;52.20;28.10;;;5.60;99.90;;;;;;5043721;28;20090;-84
2021/10/24 07:02:50;;;;;;;41.60;27.05;;;5.70;99.90;;;;;;5049478;28;20151;-84
2021/10/24 07:05:16;;;;;;;43.72;27.85;;;5.70;99.90;;;;;;5048577;28;20127;-84
2021/10/24 07:07:43;;;;;;;45.95;27.95;;;5.70;99.90;;;;;;5048918;28;20127;-86
2021/10/24 07:10:10;;;;;;;54.35;29.45;;;5.80;99.90;;;;;;5049807;28;20115;-84
2021/10/24 07:12:36;;;;;;;63.00;30.50;;;5.70;99.90;;;;;;5048445;28;20017;-86
2021/10/24 07:15:07;;;;;;;56.17;30.50;;;5.60;99.90;;;;;;5047556;28;20028;-86
2021/10/24 07:17:34;;;;;;;54.03;30.20;;;5.60;99.90;;;;;;5047209;28;20455;-83
2021/10/24 07:19:59;;;;;;;56.25;31.23;;;5.60;99.90;;;;;;5067141;28;20055;-85
2021/10/24 07:22:25;;;;;;;55.75;30.38;;;5.70;99.90;;;;;;5067452;28;20024;-85
2021/10/24 07:24:51;;;;;;;43.00;29.00;;;5.80;99.90;;;;;;5048527;28;20036;-85
2021/10/24 07:27:17;;;;;;;47.97;28.90;;;5.80;99.90;;;;;;5048491;28;20029;-84
2021/10/24 07:29:43;;;;;;;46.53;27.95;;;5.70;99.90;;;;;;5050551;28;20032;-85
2021/10/24 07:32:09;;;;;;;45.30;27.67;;;5.80;99.90;;;;;;5046824;28;20137;-86
2021/10/24 07:34:35;;;;;;;48.50;27.02;;;5.90;99.90;;;;;;5049722;28;20389;-86
2021/10/24 07:37:01;;;;;;;51.08;29.40;;;5.80;99.90;;;;;;5048233;28;20041;-85
2021/10/24 07:39:26;;;;;;;46.85;29.60;;;5.90;99.90;;;;;;5047971;28;20064;-85
2021/10/24 07:41:53;;;;;;;42.60;26.23;;;5.90;99.90;;;;;;5049288;28;20025;-85
2021/10/24 07:44:19;;;;;;;45.95;26.58;;;5.90;99.90;;;;;;5046752;28;20036;-84
2021/10/24 07:46:46;;;;;;;43.40;27.67;;;6.00;99.90;;;;;;5042797;28;20030;-85
2021/10/24 07:49:12;;;;;;;41.17;26.35;;;6.10;99.90;;;;;;5050149;28;20073;-86
2021/10/24 07:51:39;;;;;;;41.70;25.95;;;6.10;99.90;;;;;;5047857;28;20116;-86
2021/10/24 07:54:05;;;;;;;40.08;25.67;;;6.20;99.90;;;;;;5047052;28;20022;-86
2021/10/24 07:56:36;;;;;;;46.83;27.23;;;6.30;99.90;;;;;;5046142;28;20488;-85
2021/10/24 07:59:03;;;;;;;36.75;24.02;;;6.40;99.90;;;;;;5041278;28;20048;-85
2021/10/24 08:01:32;;;;;;;35.42;23.75;;;6.40;99.90;;;;;;5046227;28;20115;-84
2021/10/24 08:03:57;;;;;;;33.92;22.70;;;6.50;99.90;;;;;;5048026;28;20021;-85
2021/10/24 08:06:24;;;;;;;37.47;24.50;;;6.50;99.90;;;;;;5048867;28;20658;-85
2021/10/24 08:08:50;;;;;;;36.30;23.80;;;6.50;99.90;;;;;;5049765;28;20415;-85
2021/10/24 08:11:16;;;;;;;37.80;23.27;;;6.60;99.90;;;;;;5047799;28;20032;-85
2021/10/24 08:13:42;;;;;;;39.55;23.95;;;6.60;99.90;;;;;;5048631;28;20029;-84
2021/10/24 08:16:08;;;;;;;38.90;24.85;;;6.70;99.90;;;;;;5050653;28;20048;-86
2021/10/24 08:18:34;;;;;;;38.05;22.75;;;6.70;99.90;;;;;;5046962;28;20029;-86
2021/10/24 08:20:59;;;;;;;35.28;22.23;;;6.80;99.90;;;;;;5047180;28;20029;-86
2021/10/24 08:23:25;;;;;;;38.58;23.45;;;6.80;99.90;;;;;;5048469;28;20029;-86
2021/10/24 08:25:51;;;;;;;36.08;23.98;;;6.90;99.90;;;;;;5049687;28;20065;-85
2021/10/24 08:28:17;;;;;;;39.17;25.05;;;6.90;99.90;;;;;;5042865;28;20108;-84
2021/10/24 08:30:43;;;;;;;37.63;24.73;;;7.00;99.90;;;;;;5046373;28;20467;-85
2021/10/24 08:33:09;;;;;;;39.97;25.23;;;7.00;99.90;;;;;;5049272;28;20100;-86
2021/10/24 08:35:35;;;;;;;41.17;24.90;;;7.00;99.90;;;;;;5049858;28;20025;-86
2021/10/24 08:38:01;;;;;;;43.92;26.17;;;7.10;99.90;;;;;;5041228;28;20042;-85
2021/10/24 08:40:29;;;;;;;37.95;23.63;;;7.00;99.90;;;;;;5050045;28;20035;-86
2021/10/24 08:42:59;;;;;;;37.38;23.00;;;7.00;99.90;;;;;;5047878;28;20049;-86
2021/10/24 08:45:27;;;;;;;36.50;21.90;;;7.00;99.90;;;;;;5047244;28;20132;-86
2021/10/24 08:47:53;;;;;;;35.83;22.35;;;7.00;99.90;;;;;;5045651;28;20393;-86
2021/10/24 08:50:20;;;;;;;37.65;23.42;;;7.20;99.90;;;;;;5049259;28;20552;-85
2021/10/24 08:52:51;;;;;;;33.58;21.52;;;7.20;99.90;;;;;;5049351;28;20036;-85
2021/10/24 08:55:18;;;;;;;33.13;19.50;;;7.20;99.90;;;;;;5030228;28;20026;-85
2021/10/24 08:57:47;;;;;;;31.70;20.65;;;7.20;99.90;;;;;;5046586;28;20037;-86
2021/10/24 09:00:13;;;;;;;34.92;20.40;;;7.20;99.90;;;;;;5046720;28;20045;-86
2021/10/24 09:02:58;;;;;;;26.65;19.17;;;7.40;99.90;;;;;;5045958;28;20069;-85
2021/10/24 09:05:38;;;;;;;27.67;19.25;;;7.50;99.90;;;;;;5036597;28;20045;-85
2021/10/24 09:08:05;;;;;;;31.55;20.05;;;7.60;99.90;;;;;;5043086;28;20028;-85
2021/10/24 09:10:50;;;;;;;30.52;21.10;;;7.50;99.90;;;;;;5048280;28;20029;-85
2021/10/24 09:13:36;;;;;;;27.75;18.92;;;7.70;99.90;;;;;;5043823;28;20025;-87
2021/10/24 09:16:03;;;;;;;27.10;18.67;;;7.70;99.90;;;;;;5047890;28;20112;-85
2021/10/24 09:18:34;;;;;;;28.90;18.95;;;7.70;99.90;;;;;;5046584;28;20036;-84
2021/10/24 09:21:15;;;;;;;28.52;19.60;;;7.50;99.90;;;;;;5048566;28;20396;-84
2021/10/24 09:24:11;;;;;;;27.27;18.90;;;7.50;99.90;;;;;;5041559;28;20116;-83
2021/10/24 09:26:38;;;;;;;26.65;18.05;;;7.80;99.90;;;;;;5046593;28;20409;-83
2021/10/24 09:29:10;;;;;;;26.30;17.98;;;8.00;99.90;;;;;;5036953;28;20048;-84
2021/10/24 09:31:55;;;;;;;28.35;18.73;;;8.20;99.90;;;;;;5046384;28;20086;-85
2021/10/24 09:34:23;;;;;;;28.25;18.83;;;8.30;99.90;;;;;;5045244;28;20021;-85
2021/10/24 09:36:53;;;;;;;31.08;19.95;;;8.30;99.90;;;;;;5045883;28;20500;-85
2021/10/24 09:39:19;;;;;;;33.08;20.50;;;8.20;99.90;;;;;;5047128;28;20483;-84
2021/10/24 09:41:45;;;;;;;29.25;20.30;;;8.00;99.90;;;;;;5046943;28;20071;-85
2021/10/24 09:44:14;;;;;;;27.38;18.40;;;8.10;99.90;;;;;;5046039;28;20026;-85
2021/10/24 09:46:56;;;;;;;27.10;18.48;;;8.10;99.90;;;;;;5049109;28;20035;-85
2021/10/24 09:49:23;;;;;;;29.58;19.80;;;8.00;99.90;;;;;;5049345;28;20032;-84
2021/10/24 09:51:50;;;;;;;28.33;20.30;;;8.00;99.90;;;;;;5046720;28;20044;-86
2021/10/24 09:54:23;;;;;;;28.08;18.42;;;8.00;99.90;;;;;;5047089;28;20013;-84
2021/10/24 09:56:50;;;;;;;29.70;18.45;;;8.10;99.90;;;;;;5037189;28;20083;-84
2021/10/24 09:59:18;;;;;;;28.48;18.90;;;8.20;99.90;;;;;;5048138;28;20049;-84
2021/10/24 10:01:46;;;;;;;27.55;19.08;;;8.20;99.90;;;;;;5045292;28;20057;-83
2021/10/24 10:04:12;;;;;;;28.83;19.02;;;8.30;99.90;;;;;;5054111;28;20028;-83
2021/10/24 10:06:42;;;;;;;27.35;17.92;;;8.30;99.90;;;;;;5051413;28;20055;-84
2021/10/24 10:09:07;;;;;;;25.42;16.73;;;8.30;99.90;;;;;;5050966;28;20017;-82
2021/10/24 10:11:44;;;;;;;30.20;18.63;;;8.20;99.90;;;;;;5045579;28;20021;-84
2021/10/24 10:14:23;;;;;;;26.95;17.92;;;8.20;99.90;;;;;;5035501;28;20030;-82
2021/10/24 10:17:01;;;;;;;24.98;17.38;;;8.20;99.90;;;;;;5052722;28;20032;-85
2021/10/24 10:19:36;;;;;;;26.73;18.83;;;8.20;99.90;;;;;;5053449;28;20485;-84
2021/10/24 10:22:27;;;;;;;25.83;18.15;;;8.20;99.90;;;;;;5047444;28;20120;-82
2021/10/24 10:24:56;;;;;;;25.33;16.92;;;8.30;99.90;;;;;;5051659;28;20065;-83
2021/10/24 10:27:35;;;;;;;23.10;16.20;;;8.30;99.90;;;;;;5055535;28;20085;-83
2021/10/24 10:30:14;;;;;;;23.40;16.42;;;8.40;99.90;;;;;;5066342;28;20041;-84
2021/10/24 10:32:43;;;;;;;26.77;17.65;;;8.40;99.90;;;;;;5055960;28;20051;-84
2021/10/24 10:35:16;;;;;;;24.65;17.20;;;8.40;99.90;;;;;;5050202;28;20029;-84
2021/10/24 10:37:44;;;;;;;24.98;16.13;;;8.40;99.90;;;;;;5042986;28;20055;-86
2021/10/24 10:40:23;;;;;;;25.40;15.27;;;8.40;99.90;;;;;;5053641;28;20025;-83
2021/10/24 10:42:54;;;;;;;22.83;14.95;;;8.40;99.90;;;;;;5050264;28;20380;-86
2021/10/24 10:45:24;;;;;;;23.10;14.18;;;8.50;99.90;;;;;;5051540;28;20120;-84
2021/10/24 10:47:51;;;;;;;18.52;13.57;;;8.50;99.90;;;;;;5049683;28;20021;-85
2021/10/24 10:50:38;;;;;;;16.27;12.95;;;8.70;99.90;;;;;;5050493;28;20088;-84
2021/10/24 10:53:06;;;;;;;18.33;12.20;;;8.80;99.90;;;;;;5044962;28;20033;-85
2021/10/24 10:56:00;;;;;;;22.13;13.95;;;8.90;99.90;;;;;;5050119;28;20021;-85
2021/10/24 10:58:36;;;;;;;20.15;13.70;;;9.10;99.90;;;;;;5036862;28;20084;-86
2021/10/24 11:01:04;;;;;;;23.67;13.25;;;9.20;99.90;;;;;;5048888;28;20036;-84
2021/10/24 11:03:43;;;;;;;16.75;11.93;;;9.30;99.90;;;;;;5048415;28;20028;-85
2021/10/24 11:06:11;;;;;;;18.15;12.90;;;9.40;99.90;;;;;;5050129;28;20032;-84
2021/10/24 11:08:50;;;;;;;22.58;14.25;;;9.50;99.90;;;;;;5049936;28;20066;-84
2021/10/24 11:11:36;;;;;;;21.35;14.30;;;9.40;99.90;;;;;;5049193;28;20029;-84
2021/10/24 11:14:14;;;;;;;18.30;12.63;;;9.20;99.90;;;;;;5033828;28;20044;-83
2021/10/24 11:16:40;;;;;;;22.27;14.75;;;9.20;99.90;;;;;;5049580;28;20037;-85
2021/10/24 11:19:28;;;;;;;18.90;14.05;;;9.20;99.90;;;;;;5050438;28;20541;-86
2021/10/24 11:22:04;;;;;;;21.35;13.93;;;9.20;99.90;;;;;;5050322;28;20021;-84
2021/10/24 11:24:32;;;;;;;23.13;14.30;;;9.20;99.90;;;;;;5049099;28;20484;-85
2021/10/24 11:26:59;;;;;;;20.10;12.95;;;9.20;99.90;;;;;;5049544;28;20035;-86
2021/10/24 11:29:25;;;;;;;19.38;13.05;;;9.20;99.90;;;;;;5049232;28;20014;-83
2021/10/24 11:32:15;;;;;;;18.10;13.38;;;9.20;99.90;;;;;;5051577;28;20036;-85
2021/10/24 11:34:41;;;;;;;21.10;12.82;;;9.20;99.90;;;;;;5045077;28;20061;-83
2021/10/24 11:37:08;;;;;;;18.48;13.13;;;9.20;99.90;;;;;;5048519;28;20045;-84
2021/10/24 11:39:34;;;;;;;18.70;12.60;;;9.20;99.90;;;;;;5041424;28;20547;-84
2021/10/24 11:42:12;;;;;;;16.92;11.93;;;9.20;99.90;;;;;;5044247;28;20074;-85
2021/10/24 11:44:37;;;;;;;18.42;12.13;;;9.30;99.90;;;;;;5038144;28;20029;-84
2021/10/24 11:47:21;;;;;;;18.73;11.80;;;9.30;99.90;;;;;;5042925;28;20021;-85
2021/10/24 11:49:49;;;;;;;19.38;12.07;;;9.40;99.90;;;;;;5048569;28;20029;-84
2021/10/24 11:52:31;;;;;;;21.20;11.95;;;9.40;99.90;;;;;;5050945;28;20103;-83
2021/10/24 11:55:08;;;;;;;17.85;12.20;;;9.50;99.90;;;;;;5047202;28;20025;-84
2021/10/24 12:00:38;;;;;;;15.75;10.00;;;9.50;99.90;;;;;;5048813;28;20132;-83
2021/10/24 12:03:02;;;;;;;17.98;11.38;;;9.50;99.90;;;;;;5048706;28;20037;-85
2021/10/24 12:05:31;;;;;;;17.85;12.10;;;9.50;99.90;;;;;;5050671;28;20627;-84
2021/10/24 12:08:01;;;;;;;18.73;13.05;;;9.50;99.90;;;;;;5050296;28;20025;-84
2021/10/24 12:10:35;;;;;;;20.85;12.88;;;9.50;99.90;;;;;;5050786;28;20384;-83
2021/10/24 12:13:03;;;;;;;22.02;13.32;;;9.50;99.90;;;;;;5048775;28;20388;-85
2021/10/24 12:15:39;;;;;;;21.40;13.55;;;9.50;99.90;;;;;;5046209;28;20055;-85
2021/10/24 12:18:14;;;;;;;15.70;11.45;;;9.50;99.90;;;;;;5050213;28;20469;-85
2021/10/24 12:20:57;;;;;;;16.25;9.80;;;9.50;99.90;;;;;;5039341;28;20045;-85
2021/10/24 12:23:27;;;;;;;14.98;9.18;;;9.40;99.90;;;;;;5048628;28;20357;-86
2021/10/24 12:25:55;;;;;;;;;;;9.40;99.90;;;;;;5050275;28;20041;-84
2021/10/24 12:28:32;;;;;;;16.83;10.60;;;9.40;99.90;;;;;;5052012;28;19938;-85
2021/10/24 12:31:16;;;;;;;17.45;11.55;;;9.40;99.90;;;;;;5049246;28;20021;-83
2021/10/24 12:33:44;;;;;;;14.35;10.45;;;9.40;99.90;;;;;;5047737;28;20116;-85
2021/10/24 12:36:28;;;;;;;12.40;8.63;;;9.40;99.90;;;;;;5049389;28;20032;-85
2021/10/24 12:39:17;;;;;;;12.70;9.25;;;9.40;99.90;;;;;;5047900;28;20040;-85
2021/10/24 12:41:45;;;;;;;13.20;9.32;;;9.30;99.90;;;;;;5048272;28;20055;-83
2021/10/24 12:44:24;;;;;;;18.35;10.55;;;9.30;99.90;;;;;;5048665;28;20021;-84
2021/10/24 12:46:51;;;;;;;14.05;9.02;;;9.40;99.90;;;;;;5050491;28;20546;-84